sensor_id;sensor_type;location;lat;lon;timestamp;pressure;altitude;pressure_sealevel;temperature;humidity
27146;BME280;17980;51.744;7.190;2022-08-05T00:00:23;100907.88;;;22.53;100.00
27146;BME280;17980;51.744;7.190;2022-08-05T00:02:51;100903.08;;;22.35;100.00
27146;BME280;17980;51.744;7.190;2022-08-05T00:05:19;100886.94;;;22.50;100.00
27146;BME280;17980;51.744;7.190;2022-08-05T00:07:47;100889.98;;;22.42;100.00
27146;BME280;17980;51.744;7.190;2022-08-05T00:10:14;100877.23;;;22.28;100.00
27146;BME280;17980;51.744;7.190;2022-08-05T00:12:41;100876.15;;;22.61;100.00
27146;BME280;17980;51.744;7.190;2022-08-05T00:15:09;100877.54;;;22.61;100.00
27146;BME280;17980;51.744;7.190;2022-08-05T00:17:37;100874.63;;;22.65;100.00
27146;BME280;17980;51.744;7.190;2022-08-05T00:20:06;100873.39;;;22.45;100.00
27146;BME280;17980;51.744;7.190;2022-08-05T00:22:33;100878.93;;;22.61;100.00
27146;BME280;17980;51.744;7.190;2022-08-05T00:25:02;100889.45;;;22.59;100.00
27146;BME280;17980;51.744;7.190;2022-08-05T00:27:30;100891.68;;;22.84;100.00
27146;BME280;17980;51.744;7.190;2022-08-05T00:29:57;100896.78;;;22.62;100.00
27146;BME280;17980;51.744;7.190;2022-08-05T00:32:25;100894.36;;;22.57;100.00
27146;BME280;17980;51.744;7.190;2022-08-05T00:34:52;100888.92;;;22.43;100.00
27146;BME280;17980;51.744;7.190;2022-08-05T00:37:19;100883.45;;;22.46;100.00
27146;BME280;17980;51.744;7.190;2022-08-05T00:39:46;100888.39;;;22.69;100.00
27146;BME280;17980;51.744;7.190;2022-08-05T00:42:14;100891.54;;;22.89;100.00
27146;BME280;17980;51.744;7.190;2022-08-05T00:44:42;100900.95;;;22.87;100.00
27146;BME280;17980;51.744;7.190;2022-08-05T00:47:10;100899.70;;;22.83;100.00
27146;BME280;17980;51.744;7.190;2022-08-05T00:49:37;100904.20;;;22.84;100.00
27146;BME280;17980;51.744;7.190;2022-08-05T00:52:05;100897.74;;;22.65;100.00
27146;BME280;17980;51.744;7.190;2022-08-05T00:54:32;100907.63;;;22.70;100.00
27146;BME280;17980;51.744;7.190;2022-08-05T00:56:59;100911.80;;;22.70;100.00
27146;BME280;17980;51.744;7.190;2022-08-05T00:59:27;100911.96;;;22.50;100.00
27146;BME280;17980;51.744;7.190;2022-08-05T01:01:54;100917.92;;;22.79;100.00
27146;BME280;17980;51.744;7.190;2022-08-05T01:04:21;100928.31;;;22.91;100.00
27146;BME280;17980;51.744;7.190;2022-08-05T01:06:49;100941.76;;;22.84;100.00
27146;BME280;17980;51.744;7.190;2022-08-05T01:09:16;100940.17;;;23.11;100.00
27146;BME280;17980;51.744;7.190;2022-08-05T01:11:45;100929.23;;;22.84;100.00
27146;BME280;17980;51.744;7.190;2022-08-05T01:17:02;100923.47;;;23.20;98.52
27146;BME280;17980;51.744;7.190;2022-08-05T01:19:33;100938.34;;;23.24;97.56
27146;BME280;17980;51.744;7.190;2022-08-05T01:22:24;100939.70;;;22.73;99.31
27146;BME280;17980;51.744;7.190;2022-08-05T01:25:10;100939.34;;;23.04;99.11
27146;BME280;17980;51.744;7.190;2022-08-05T01:27:52;100947.50;;;23.15;98.72
27146;BME280;17980;51.744;7.190;2022-08-05T01:30:19;100931.10;;;22.91;98.78
27146;BME280;17980;51.744;7.190;2022-08-05T01:32:49;100932.70;;;22.64;100.00
27146;BME280;17980;51.744;7.190;2022-08-05T01:35:21;100934.80;;;22.84;100.00
27146;BME280;17980;51.744;7.190;2022-08-05T01:37:50;100938.28;;;22.89;100.00
27146;BME280;17980;51.744;7.190;2022-08-05T01:40:20;100934.38;;;22.72;100.00
27146;BME280;17980;51.744;7.190;2022-08-05T01:42:49;100927.75;;;22.41;100.00
27146;BME280;17980;51.744;7.190;2022-08-05T01:47:59;100929.50;;;22.35;100.00
27146;BME280;17980;51.744;7.190;2022-08-05T01:50:30;100930.88;;;22.51;100.00
27146;BME280;17980;51.744;7.190;2022-08-05T01:53:01;100929.27;;;22.14;100.00
27146;BME280;17980;51.744;7.190;2022-08-05T01:55:31;100926.92;;;21.95;100.00
27146;BME280;17980;51.744;7.190;2022-08-05T01:57:59;100928.39;;;22.20;100.00
27146;BME280;17980;51.744;7.190;2022-08-05T02:00:29;100925.68;;;22.23;100.00
27146;BME280;17980;51.744;7.190;2022-08-05T02:02:59;100922.55;;;22.12;100.00
27146;BME280;17980;51.744;7.190;2022-08-05T02:05:31;100928.91;;;22.19;100.00
27146;BME280;17980;51.744;7.190;2022-08-05T02:07:59;100933.53;;;22.39;100.00
27146;BME280;17980;51.744;7.190;2022-08-05T02:10:30;100936.17;;;22.59;100.00
27146;BME280;17980;51.744;7.190;2022-08-05T02:15:43;100944.68;;;22.80;100.00
27146;BME280;17980;51.744;7.190;2022-08-05T02:18:14;100941.05;;;22.64;100.00
27146;BME280;17980;51.744;7.190;2022-08-05T02:20:46;100943.41;;;22.67;100.00
27146;BME280;17980;51.744;7.190;2022-08-05T02:25:56;100957.25;;;22.19;100.00
27146;BME280;17980;51.744;7.190;2022-08-05T02:28:28;100964.22;;;22.42;100.00
27146;BME280;17980;51.744;7.190;2022-08-05T02:30:59;100978.50;;;22.45;100.00
27146;BME280;17980;51.744;7.190;2022-08-05T02:33:28;100981.66;;;22.72;100.00
27146;BME280;17980;51.744;7.190;2022-08-05T02:35:58;100987.95;;;22.60;100.00
27146;BME280;17980;51.744;7.190;2022-08-05T02:38:28;100995.97;;;22.59;100.00
27146;BME280;17980;51.744;7.190;2022-08-05T02:40:57;101005.60;;;22.57;100.00
27146;BME280;17980;51.744;7.190;2022-08-05T02:43:26;101015.98;;;22.59;100.00
27146;BME280;17980;51.744;7.190;2022-08-05T02:45:54;101020.05;;;22.40;100.00
27146;BME280;17980;51.744;7.190;2022-08-05T02:48:23;101015.30;;;22.47;100.00
27146;BME280;17980;51.744;7.190;2022-08-05T02:50:52;101016.73;;;22.57;100.00
27146;BME280;17980;51.744;7.190;2022-08-05T02:53:21;101026.52;;;22.66;100.00
27146;BME280;17980;51.744;7.190;2022-08-05T02:55:50;101029.63;;;22.67;100.00
27146;BME280;17980;51.744;7.190;2022-08-05T02:58:20;101027.14;;;22.52;100.00
27146;BME280;17980;51.744;7.190;2022-08-05T03:00:50;101014.11;;;22.68;100.00
27146;BME280;17980;51.744;7.190;2022-08-05T03:03:20;101011.52;;;22.51;100.00
27146;BME280;17980;51.744;7.190;2022-08-05T03:05:48;101015.99;;;22.29;100.00
27146;BME280;17980;51.744;7.190;2022-08-05T03:08:17;101012.82;;;22.26;100.00
27146;BME280;17980;51.744;7.190;2022-08-05T03:10:45;101002.12;;;22.23;100.00
27146;BME280;17980;51.744;7.190;2022-08-05T03:13:12;101006.37;;;22.03;100.00
27146;BME280;17980;51.744;7.190;2022-08-05T03:15:42;101002.47;;;22.17;100.00
27146;BME280;17980;51.744;7.190;2022-08-05T03:18:10;100993.67;;;21.75;100.00
27146;BME280;17980;51.744;7.190;2022-08-05T03:20:37;100991.36;;;21.52;100.00
27146;BME280;17980;51.744;7.190;2022-08-05T03:23:06;100998.45;;;21.77;100.00
27146;BME280;17980;51.744;7.190;2022-08-05T03:25:34;100985.67;;;21.69;100.00
27146;BME280;17980;51.744;7.190;2022-08-05T03:28:03;100980.36;;;21.21;100.00
27146;BME280;17980;51.744;7.190;2022-08-05T03:30:31;100957.80;;;21.66;100.00
27146;BME280;17980;51.744;7.190;2022-08-05T03:32:59;100947.12;;;21.43;100.00
27146;BME280;17980;51.744;7.190;2022-08-05T03:35:27;100940.23;;;21.30;100.00
27146;BME280;17980;51.744;7.190;2022-08-05T03:37:57;100932.78;;;21.24;100.00
27146;BME280;17980;51.744;7.190;2022-08-05T03:40:24;100918.47;;;21.13;100.00
27146;BME280;17980;51.744;7.190;2022-08-05T03:42:52;100897.39;;;20.72;100.00
27146;BME280;17980;51.744;7.190;2022-08-05T03:45:19;100893.21;;;20.99;100.00
27146;BME280;17980;51.744;7.190;2022-08-05T03:47:47;100870.47;;;21.06;100.00
27146;BME280;17980;51.744;7.190;2022-08-05T03:50:14;100837.00;;;20.94;100.00
27146;BME280;17980;51.744;7.190;2022-08-05T03:52:47;100839.81;;;20.74;100.00
27146;BME280;17980;51.744;7.190;2022-08-05T03:57:57;100868.02;;;21.07;100.00
27146;BME280;17980;51.744;7.190;2022-08-05T04:00:25;100872.57;;;21.24;100.00
27146;BME280;17980;51.744;7.190;2022-08-05T04:02:56;100879.84;;;21.19;100.00
27146;BME280;17980;51.744;7.190;2022-08-05T04:05:26;100906.70;;;21.31;100.00
27146;BME280;17980;51.744;7.190;2022-08-05T04:07:55;100913.24;;;21.28;100.00
27146;BME280;17980;51.744;7.190;2022-08-05T04:10:23;100932.59;;;20.98;100.00
27146;BME280;17980;51.744;7.190;2022-08-05T04:12:50;100928.75;;;21.49;100.00
27146;BME280;17980;51.744;7.190;2022-08-05T04:15:18;100919.69;;;21.44;100.00
27146;BME280;17980;51.744;7.190;2022-08-05T04:17:45;100922.27;;;21.53;100.00
27146;BME280;17980;51.744;7.190;2022-08-05T04:20:18;100923.66;;;21.53;100.00
27146;BME280;17980;51.744;7.190;2022-08-05T04:22:46;100919.91;;;21.43;100.00
27146;BME280;17980;51.744;7.190;2022-08-05T04:25:13;100936.66;;;21.88;100.00
27146;BME280;17980;51.744;7.190;2022-08-05T04:27:41;100957.98;;;21.72;100.00
27146;BME280;17980;51.744;7.190;2022-08-05T04:30:10;100956.19;;;21.68;100.00
27146;BME280;17980;51.744;7.190;2022-08-05T04:32:37;100970.54;;;21.38;100.00
27146;BME280;17980;51.744;7.190;2022-08-05T04:35:06;100974.11;;;21.09;100.00
27146;BME280;17980;51.744;7.190;2022-08-05T04:37:34;100977.09;;;21.01;100.00
27146;BME280;17980;51.744;7.190;2022-08-05T04:40:01;100978.89;;;21.11;100.00
27146;BME280;17980;51.744;7.190;2022-08-05T04:42:28;100973.23;;;21.09;100.00
27146;BME280;17980;51.744;7.190;2022-08-05T04:44:56;100977.59;;;21.41;100.00
27146;BME280;17980;51.744;7.190;2022-08-05T04:50:05;100970.31;;;21.53;100.00
27146;BME280;17980;51.744;7.190;2022-08-05T04:52:33;100969.30;;;21.77;100.00
27146;BME280;17980;51.744;7.190;2022-08-05T04:55:00;100969.60;;;21.84;100.00
27146;BME280;17980;51.744;7.190;2022-08-05T04:57:27;100979.84;;;21.84;100.00
27146;BME280;17980;51.744;7.190;2022-08-05T04:59:55;100988.25;;;21.50;100.00
27146;BME280;17980;51.744;7.190;2022-08-05T05:02:22;100987.62;;;21.62;100.00
27146;BME280;17980;51.744;7.190;2022-08-05T05:04:49;100980.10;;;21.98;100.00
27146;BME280;17980;51.744;7.190;2022-08-05T05:07:17;100982.37;;;21.49;100.00
27146;BME280;17980;51.744;7.190;2022-08-05T05:09:44;100976.53;;;21.35;100.00
27146;BME280;17980;51.744;7.190;2022-08-05T05:12:11;100966.80;;;21.62;100.00
27146;BME280;17980;51.744;7.190;2022-08-05T05:14:39;100966.02;;;21.64;100.00
27146;BME280;17980;51.744;7.190;2022-08-05T05:17:06;100975.28;;;21.80;100.00
27146;BME280;17980;51.744;7.190;2022-08-05T05:19:33;100970.20;;;21.57;100.00
27146;BME280;17980;51.744;7.190;2022-08-05T05:22:01;100959.88;;;21.84;100.00
27146;BME280;17980;51.744;7.190;2022-08-05T05:24:28;100949.64;;;21.72;100.00
27146;BME280;17980;51.744;7.190;2022-08-05T05:26:55;100947.36;;;21.55;100.00
27146;BME280;17980;51.744;7.190;2022-08-05T05:29:22;100956.23;;;21.35;100.00
27146;BME280;17980;51.744;7.190;2022-08-05T05:31:50;100962.33;;;21.21;100.00
27146;BME280;17980;51.744;7.190;2022-08-05T05:36:56;100965.83;;;21.45;100.00
27146;BME280;17980;51.744;7.190;2022-08-05T05:39:24;100971.16;;;21.90;100.00
27146;BME280;17980;51.744;7.190;2022-08-05T05:41:51;100972.64;;;22.22;100.00
27146;BME280;17980;51.744;7.190;2022-08-05T05:44:18;100969.11;;;22.17;100.00
27146;BME280;17980;51.744;7.190;2022-08-05T05:46:45;100972.27;;;22.34;100.00
27146;BME280;17980;51.744;7.190;2022-08-05T05:49:13;100975.34;;;22.12;100.00
27146;BME280;17980;51.744;7.190;2022-08-05T05:51:40;100984.77;;;22.34;100.00
27146;BME280;17980;51.744;7.190;2022-08-05T05:56:47;100991.17;;;22.41;100.00
27146;BME280;17980;51.744;7.190;2022-08-05T05:59:14;100988.64;;;22.26;100.00
27146;BME280;17980;51.744;7.190;2022-08-05T06:01:42;100988.97;;;22.05;100.00
27146;BME280;17980;51.744;7.190;2022-08-05T06:04:10;100992.36;;;21.77;100.00
27146;BME280;17980;51.744;7.190;2022-08-05T06:06:38;100990.51;;;21.58;100.00
27146;BME280;17980;51.744;7.190;2022-08-05T06:09:06;100986.84;;;21.71;100.00
27146;BME280;17980;51.744;7.190;2022-08-05T06:11:33;100990.05;;;21.97;100.00
27146;BME280;17980;51.744;7.190;2022-08-05T06:14:01;100986.22;;;22.21;100.00
27146;BME280;17980;51.744;7.190;2022-08-05T06:16:28;100997.22;;;21.95;100.00
27146;BME280;17980;51.744;7.190;2022-08-05T06:18:56;100996.75;;;22.05;100.00
27146;BME280;17980;51.744;7.190;2022-08-05T06:21:23;100997.52;;;21.60;100.00
27146;BME280;17980;51.744;7.190;2022-08-05T06:23:50;101000.75;;;21.44;100.00
27146;BME280;17980;51.744;7.190;2022-08-05T06:26:18;100999.14;;;21.32;100.00
27146;BME280;17980;51.744;7.190;2022-08-05T06:28:45;101011.52;;;21.43;100.00
27146;BME280;17980;51.744;7.190;2022-08-05T06:31:13;101005.67;;;21.62;100.00
27146;BME280;17980;51.744;7.190;2022-08-05T06:33:40;101023.91;;;21.40;100.00
27146;BME280;17980;51.744;7.190;2022-08-05T06:36:08;101041.66;;;21.39;100.00
27146;BME280;17980;51.744;7.190;2022-08-05T06:38:35;101061.48;;;21.36;100.00
27146;BME280;17980;51.744;7.190;2022-08-05T06:41:03;101077.08;;;21.17;100.00
27146;BME280;17980;51.744;7.190;2022-08-05T06:43:30;101086.98;;;20.95;100.00
27146;BME280;17980;51.744;7.190;2022-08-05T06:48:37;101067.05;;;21.09;100.00
27146;BME280;17980;51.744;7.190;2022-08-05T06:51:05;101038.73;;;20.83;100.00
27146;BME280;17980;51.744;7.190;2022-08-05T06:53:32;101041.72;;;20.81;100.00
27146;BME280;17980;51.744;7.190;2022-08-05T06:56:02;101044.42;;;21.26;100.00
27146;BME280;17980;51.744;7.190;2022-08-05T06:58:29;101048.82;;;21.58;100.00
27146;BME280;17980;51.744;7.190;2022-08-05T07:00:58;101044.63;;;21.51;100.00
27146;BME280;17980;51.744;7.190;2022-08-05T07:03:26;101054.23;;;21.48;100.00
27146;BME280;17980;51.744;7.190;2022-08-05T07:05:54;101056.91;;;21.26;100.00
27146;BME280;17980;51.744;7.190;2022-08-05T07:08:21;101058.81;;;21.32;100.00
27146;BME280;17980;51.744;7.190;2022-08-05T07:10:49;101051.66;;;21.00;100.00
27146;BME280;17980;51.744;7.190;2022-08-05T07:13:16;101053.92;;;21.14;100.00
27146;BME280;17980;51.744;7.190;2022-08-05T07:16:02;101048.96;;;20.76;100.00
27146;BME280;17980;51.744;7.190;2022-08-05T07:18:48;101051.78;;;21.03;100.00
27146;BME280;17980;51.744;7.190;2022-08-05T07:21:15;101074.20;;;21.41;100.00
27146;BME280;17980;51.744;7.190;2022-08-05T07:23:42;101100.88;;;21.49;100.00
27146;BME280;17980;51.744;7.190;2022-08-05T07:26:09;101139.67;;;21.46;100.00
27146;BME280;17980;51.744;7.190;2022-08-05T07:28:37;101143.80;;;21.33;100.00
27146;BME280;17980;51.744;7.190;2022-08-05T07:31:06;101128.73;;;21.25;100.00
27146;BME280;17980;51.744;7.190;2022-08-05T07:33:33;101086.11;;;20.95;100.00
27146;BME280;17980;51.744;7.190;2022-08-05T07:36:01;101088.23;;;20.86;100.00
27146;BME280;17980;51.744;7.190;2022-08-05T07:38:28;101106.40;;;20.95;100.00
27146;BME280;17980;51.744;7.190;2022-08-05T07:40:55;101116.05;;;21.20;100.00
27146;BME280;17980;51.744;7.190;2022-08-05T07:43:23;101108.16;;;20.79;100.00
27146;BME280;17980;51.744;7.190;2022-08-05T07:45:50;101104.30;;;20.73;100.00
27146;BME280;17980;51.744;7.190;2022-08-05T07:48:17;101090.16;;;20.86;100.00
27146;BME280;17980;51.744;7.190;2022-08-05T07:50:45;101085.22;;;20.50;100.00
27146;BME280;17980;51.744;7.190;2022-08-05T07:53:12;101091.48;;;20.48;100.00
27146;BME280;17980;51.744;7.190;2022-08-05T07:55:39;101098.63;;;20.46;100.00
27146;BME280;17980;51.744;7.190;2022-08-05T07:58:07;101106.69;;;20.59;100.00
27146;BME280;17980;51.744;7.190;2022-08-05T08:00:34;101102.91;;;20.49;100.00
27146;BME280;17980;51.744;7.190;2022-08-05T08:03:09;101110.16;;;20.68;100.00
27146;BME280;17980;51.744;7.190;2022-08-05T08:05:36;101118.08;;;20.77;100.00
27146;BME280;17980;51.744;7.190;2022-08-05T08:08:04;101122.43;;;21.07;100.00
27146;BME280;17980;51.744;7.190;2022-08-05T08:10:31;101124.47;;;21.29;100.00
27146;BME280;17980;51.744;7.190;2022-08-05T08:12:58;101141.68;;;20.91;100.00
27146;BME280;17980;51.744;7.190;2022-08-05T08:15:26;101136.44;;;20.78;100.00
27146;BME280;17980;51.744;7.190;2022-08-05T08:17:53;101126.67;;;21.54;100.00
27146;BME280;17980;51.744;7.190;2022-08-05T08:20:22;101128.87;;;21.41;100.00
27146;BME280;17980;51.744;7.190;2022-08-05T08:22:53;101134.65;;;21.39;100.00
27146;BME280;17980;51.744;7.190;2022-08-05T08:25:21;101129.70;;;21.21;100.00
27146;BME280;17980;51.744;7.190;2022-08-05T08:27:49;101128.73;;;21.25;100.00
27146;BME280;17980;51.744;7.190;2022-08-05T08:30:16;101137.11;;;21.45;100.00
27146;BME280;17980;51.744;7.190;2022-08-05T08:32:44;101143.39;;;21.43;100.00
27146;BME280;17980;51.744;7.190;2022-08-05T08:35:11;101148.16;;;21.25;99.75
27146;BME280;17980;51.744;7.190;2022-08-05T08:37:38;101157.53;;;21.61;99.33
27146;BME280;17980;51.744;7.190;2022-08-05T08:40:07;101161.68;;;21.55;99.10
27146;BME280;17980;51.744;7.190;2022-08-05T08:42:35;101166.38;;;21.94;98.60
27146;BME280;17980;51.744;7.190;2022-08-05T08:45:05;101165.86;;;21.95;96.14
27146;BME280;17980;51.744;7.190;2022-08-05T08:47:33;101166.38;;;21.94;95.05
27146;BME280;17980;51.744;7.190;2022-08-05T08:50:02;101164.05;;;21.71;94.20
27146;BME280;17980;51.744;7.190;2022-08-05T08:52:31;101165.75;;;21.65;96.09
27146;BME280;17980;51.744;7.190;2022-08-05T08:57:40;101183.20;;;22.46;92.56
27146;BME280;17980;51.744;7.190;2022-08-05T09:00:09;101185.75;;;22.55;91.35
27146;BME280;17980;51.744;7.190;2022-08-05T09:05:16;101198.09;;;22.43;94.26
27146;BME280;17980;51.744;7.190;2022-08-05T09:07:43;101197.55;;;22.43;91.51
27146;BME280;17980;51.744;7.190;2022-08-05T09:10:11;101201.75;;;22.73;91.02
27146;BME280;17980;51.744;7.190;2022-08-05T09:12:38;101210.83;;;22.34;93.48
27146;BME280;17980;51.744;7.190;2022-08-05T09:15:07;101204.95;;;22.00;93.51
27146;BME280;17980;51.744;7.190;2022-08-05T09:20:17;101200.94;;;22.59;92.00
27146;BME280;17980;51.744;7.190;2022-08-05T09:23:06;101202.34;;;22.52;90.88
27146;BME280;17980;51.744;7.190;2022-08-05T09:25:34;101213.96;;;22.58;89.49
27146;BME280;17980;51.744;7.190;2022-08-05T09:28:13;101221.02;;;22.61;88.20
27146;BME280;17980;51.744;7.190;2022-08-05T09:30:51;101219.95;;;22.62;91.10
27146;BME280;17980;51.744;7.190;2022-08-05T09:33:20;101210.64;;;21.96;92.27
27146;BME280;17980;51.744;7.190;2022-08-05T09:35:57;101218.34;;;22.63;91.14
27146;BME280;17980;51.744;7.190;2022-08-05T09:38:25;101211.05;;;22.06;92.35
27146;BME280;17980;51.744;7.190;2022-08-05T09:40:52;101222.91;;;22.38;92.42
27146;BME280;17980;51.744;7.190;2022-08-05T09:46:23;101232.36;;;22.66;92.26
27146;BME280;17980;51.744;7.190;2022-08-05T09:48:51;101227.30;;;22.36;93.29
27146;BME280;17980;51.744;7.190;2022-08-05T09:51:31;101229.97;;;22.69;92.21
27146;BME280;17980;51.744;7.190;2022-08-05T09:53:59;101233.64;;;22.99;91.37
27146;BME280;17980;51.744;7.190;2022-08-05T09:56:30;101236.44;;;22.57;93.37
27146;BME280;17980;51.744;7.190;2022-08-05T09:59:00;101246.32;;;22.26;92.68
27146;BME280;17980;51.744;7.190;2022-08-05T10:01:28;101246.61;;;22.47;92.99
27146;BME280;17980;51.744;7.190;2022-08-05T10:06:55;101253.72;;;22.79;90.02
27146;BME280;17980;51.744;7.190;2022-08-05T10:09:23;101263.41;;;22.49;92.31
27146;BME280;17980;51.744;7.190;2022-08-05T10:11:50;101270.28;;;22.33;91.46
27146;BME280;17980;51.744;7.190;2022-08-05T10:14:22;101274.97;;;22.46;91.79
27146;BME280;17980;51.744;7.190;2022-08-05T10:16:51;101276.24;;;22.93;90.03
27146;BME280;17980;51.744;7.190;2022-08-05T10:19:21;101270.58;;;23.27;88.58
27146;BME280;17980;51.744;7.190;2022-08-05T10:24:29;101279.34;;;24.01;83.06
27146;BME280;17980;51.744;7.190;2022-08-05T10:26:57;101280.19;;;24.17;80.99
27146;BME280;17980;51.744;7.190;2022-08-05T10:29:25;101296.45;;;24.55;78.67
27146;BME280;17980;51.744;7.190;2022-08-05T10:31:55;101290.19;;;24.25;78.84
27146;BME280;17980;51.744;7.190;2022-08-05T10:34:23;101296.44;;;23.95;81.00
27146;BME280;17980;51.744;7.190;2022-08-05T10:36:50;101293.48;;;25.21;77.21
27146;BME280;17980;51.744;7.190;2022-08-05T10:39:20;101305.44;;;25.10;76.93
27146;BME280;17980;51.744;7.190;2022-08-05T10:41:55;101304.66;;;25.49;75.12
27146;BME280;17980;51.744;7.190;2022-08-05T10:44:22;101310.38;;;25.85;74.15
27146;BME280;17980;51.744;7.190;2022-08-05T10:46:51;101310.34;;;26.60;69.85
27146;BME280;17980;51.744;7.190;2022-08-05T10:49:20;101311.44;;;26.47;69.71
27146;BME280;17980;51.744;7.190;2022-08-05T10:51:49;101321.25;;;24.79;74.79
27146;BME280;17980;51.744;7.190;2022-08-05T10:54:18;101311.69;;;25.91;71.85
27146;BME280;17980;51.744;7.190;2022-08-05T10:59:27;101319.05;;;27.23;68.52
27146;BME280;17980;51.744;7.190;2022-08-05T11:02:07;101324.87;;;26.36;69.34
27146;BME280;17980;51.744;7.190;2022-08-05T11:04:42;101322.18;;;26.41;69.67
27146;BME280;17980;51.744;7.190;2022-08-05T11:07:10;101332.66;;;27.05;67.58
27146;BME280;17980;51.744;7.190;2022-08-05T11:12:46;101332.86;;;27.27;67.37
27146;BME280;17980;51.744;7.190;2022-08-05T11:15:19;101333.03;;;27.08;69.45
27146;BME280;17980;51.744;7.190;2022-08-05T11:17:47;101336.58;;;26.23;71.55
27146;BME280;17980;51.744;7.190;2022-08-05T11:20:35;101342.13;;;25.90;71.27
27146;BME280;17980;51.744;7.190;2022-08-05T11:29:00;101327.95;;;26.25;70.86
27146;BME280;17980;51.744;7.190;2022-08-05T11:31:31;101326.08;;;26.07;70.86
27146;BME280;17980;51.744;7.190;2022-08-05T11:34:06;101323.45;;;25.42;73.65
27146;BME280;17980;51.744;7.190;2022-08-05T11:36:42;101330.17;;;26.14;70.62
27146;BME280;17980;51.744;7.190;2022-08-05T11:39:13;101334.06;;;26.57;68.65
27146;BME280;17980;51.744;7.190;2022-08-05T11:41:47;101332.81;;;25.57;71.29
27146;BME280;17980;51.744;7.190;2022-08-05T11:44:12;101336.60;;;24.70;76.29
27146;BME280;17980;51.744;7.190;2022-08-05T11:46:45;101332.48;;;25.65;73.23
27146;BME280;17980;51.744;7.190;2022-08-05T11:49:12;101333.83;;;26.47;71.25
27146;BME280;17980;51.744;7.190;2022-08-05T11:51:41;101335.99;;;26.33;71.18
27146;BME280;17980;51.744;7.190;2022-08-05T11:54:10;101337.92;;;26.77;69.19
27146;BME280;17980;51.744;7.190;2022-08-05T11:56:45;101345.48;;;26.11;70.62
27146;BME280;17980;51.744;7.190;2022-08-05T11:59:14;101354.14;;;26.00;69.60
27146;BME280;17980;51.744;7.190;2022-08-05T12:01:56;101347.78;;;26.35;69.81
27146;BME280;17980;51.744;7.190;2022-08-05T12:04:25;101335.20;;;26.80;69.41
27146;BME280;17980;51.744;7.190;2022-08-05T12:06:54;101333.84;;;26.71;67.16
27146;BME280;17980;51.744;7.190;2022-08-05T12:09:24;101344.45;;;26.92;68.43
27146;BME280;17980;51.744;7.190;2022-08-05T12:11:52;101347.24;;;26.69;68.74
27146;BME280;17980;51.744;7.190;2022-08-05T12:14:20;101346.77;;;26.39;70.60
27146;BME280;17980;51.744;7.190;2022-08-05T12:16:49;101344.56;;;26.41;68.63
27146;BME280;17980;51.744;7.190;2022-08-05T12:19:17;101351.84;;;25.39;72.06
27146;BME280;17980;51.744;7.190;2022-08-05T12:21:47;101354.72;;;25.81;71.61
27146;BME280;17980;51.744;7.190;2022-08-05T12:24:16;101359.23;;;25.73;71.27
27146;BME280;17980;51.744;7.190;2022-08-05T12:26:46;101356.59;;;25.87;67.67
27146;BME280;17980;51.744;7.190;2022-08-05T12:29:15;101351.00;;;25.38;70.58
27146;BME280;17980;51.744;7.190;2022-08-05T12:31:48;101360.62;;;25.82;69.29
27146;BME280;17980;51.744;7.190;2022-08-05T12:34:17;101364.50;;;25.90;67.35
27146;BME280;17980;51.744;7.190;2022-08-05T12:36:45;101366.78;;;25.72;67.69
27146;BME280;17980;51.744;7.190;2022-08-05T12:39:14;101360.36;;;26.23;66.99
27146;BME280;17980;51.744;7.190;2022-08-05T12:41:42;101362.94;;;25.55;68.62
27146;BME280;17980;51.744;7.190;2022-08-05T12:44:12;101369.71;;;26.38;67.12
27146;BME280;17980;51.744;7.190;2022-08-05T12:46:40;101377.13;;;26.44;66.24
27146;BME280;17980;51.744;7.190;2022-08-05T12:49:09;101376.29;;;26.44;65.67
27146;BME280;17980;51.744;7.190;2022-08-05T12:51:44;101369.70;;;26.71;65.53
27146;BME280;17980;51.744;7.190;2022-08-05T12:54:21;101374.83;;;27.24;63.71
27146;BME280;17980;51.744;7.190;2022-08-05T12:56:50;101377.63;;;27.77;63.56
27146;BME280;17980;51.744;7.190;2022-08-05T12:59:19;101371.17;;;27.47;62.98
27146;BME280;17980;51.744;7.190;2022-08-05T13:01:55;101381.30;;;27.25;61.93
27146;BME280;17980;51.744;7.190;2022-08-05T13:04:33;101378.18;;;26.64;63.35
27146;BME280;17980;51.744;7.190;2022-08-05T13:07:02;101385.28;;;27.03;62.63
27146;BME280;17980;51.744;7.190;2022-08-05T13:09:30;101387.78;;;26.90;63.82
27146;BME280;17980;51.744;7.190;2022-08-05T13:12:03;101397.59;;;26.03;66.71
27146;BME280;17980;51.744;7.190;2022-08-05T13:14:35;101400.95;;;25.56;67.59
27146;BME280;17980;51.744;7.190;2022-08-05T13:17:09;101412.10;;;25.19;69.10
27146;BME280;17980;51.744;7.190;2022-08-05T13:19:37;101412.87;;;24.73;70.40
27146;BME280;17980;51.744;7.190;2022-08-05T13:22:04;101412.03;;;25.25;68.24
27146;BME280;17980;51.744;7.190;2022-08-05T13:24:32;101407.98;;;25.03;69.81
27146;BME280;17980;51.744;7.190;2022-08-05T13:26:59;101412.34;;;25.17;69.28
27146;BME280;17980;51.744;7.190;2022-08-05T13:29:26;101416.27;;;25.53;69.39
27146;BME280;17980;51.744;7.190;2022-08-05T13:31:54;101419.78;;;25.88;68.41
27146;BME280;17980;51.744;7.190;2022-08-05T13:34:24;101418.05;;;25.97;67.37
27146;BME280;17980;51.744;7.190;2022-08-05T13:36:51;101417.69;;;25.93;64.88
27146;BME280;17980;51.744;7.190;2022-08-05T13:39:18;101420.66;;;26.28;64.03
27146;BME280;17980;51.744;7.190;2022-08-05T13:41:46;101420.16;;;26.53;61.94
27146;BME280;17980;51.744;7.190;2022-08-05T13:44:13;101420.45;;;26.75;59.27